sensor_id;sensor_type;location;lat;lon;timestamp;pressure;altitude;pressure_sealevel;temperature;humidity
50310;BME280;36207;51.850;21.698;2023-05-16T00:01:14;99158.11;;;13.26;82.28
50310;BME280;36207;51.850;21.698;2023-05-16T00:03:41;99158.73;;;13.24;82.05
50310;BME280;36207;51.850;21.698;2023-05-16T00:06:08;99161.09;;;13.23;82.02
50310;BME280;36207;51.850;21.698;2023-05-16T00:08:34;99157.88;;;13.23;82.04
50310;BME280;36207;51.850;21.698;2023-05-16T00:11:00;99157.40;;;13.21;82.05
50310;BME280;36207;51.850;21.698;2023-05-16T00:13:28;99157.73;;;13.18;82.01
50310;BME280;36207;51.850;21.698;2023-05-16T00:15:55;99150.08;;;13.17;82.20
50310;BME280;36207;51.850;21.698;2023-05-16T00:18:21;99148.46;;;13.17;82.08
50310;BME280;36207;51.850;21.698;2023-05-16T00:20:48;99148.67;;;13.18;81.91
50310;BME280;36207;51.850;21.698;2023-05-16T00:23:14;99150.86;;;13.18;82.00
50310;BME280;36207;51.850;21.698;2023-05-16T00:25:42;99153.65;;;13.15;81.78
50310;BME280;36207;51.850;21.698;2023-05-16T00:28:08;99155.77;;;13.11;81.40
50310;BME280;36207;51.850;21.698;2023-05-16T00:30:34;99153.56;;;13.09;81.31
50310;BME280;36207;51.850;21.698;2023-05-16T00:33:00;99150.09;;;13.08;81.46
50310;BME280;36207;51.850;21.698;2023-05-16T00:35:27;99152.34;;;13.08;81.27
50310;BME280;36207;51.850;21.698;2023-05-16T00:37:53;99154.82;;;13.05;81.00
50310;BME280;36207;51.850;21.698;2023-05-16T00:40:19;99155.46;;;13.01;81.07
50310;BME280;36207;51.850;21.698;2023-05-16T00:42:45;99149.77;;;12.95;80.91
50310;BME280;36207;51.850;21.698;2023-05-16T00:45:11;99152.17;;;12.93;80.97
50310;BME280;36207;51.850;21.698;2023-05-16T00:47:37;99155.02;;;12.92;80.83
50310;BME280;36207;51.850;21.698;2023-05-16T00:50:03;99157.52;;;12.92;81.02
50310;BME280;36207;51.850;21.698;2023-05-16T00:52:30;99155.16;;;12.90;80.95
50310;BME280;36207;51.850;21.698;2023-05-16T00:54:58;99151.46;;;12.87;80.71
50310;BME280;36207;51.850;21.698;2023-05-16T00:57:24;99152.59;;;12.85;80.55
50310;BME280;36207;51.850;21.698;2023-05-16T00:59:50;99155.45;;;12.81;80.50
50310;BME280;36207;51.850;21.698;2023-05-16T01:02:17;99155.55;;;12.78;80.52
50310;BME280;36207;51.850;21.698;2023-05-16T01:04:43;99156.01;;;12.78;80.82
50310;BME280;36207;51.850;21.698;2023-05-16T01:07:09;99159.73;;;12.77;80.40
50310;BME280;36207;51.850;21.698;2023-05-16T01:09:35;99160.46;;;12.70;80.33
50310;BME280;36207;51.850;21.698;2023-05-16T01:12:28;99166.17;;;12.65;80.41
50310;BME280;36207;51.850;21.698;2023-05-16T01:17:56;99168.59;;;12.58;80.42
50310;BME280;36207;51.850;21.698;2023-05-16T01:23:16;99173.98;;;12.49;80.67
50310;BME280;36207;51.850;21.698;2023-05-16T01:28:14;99178.29;;;12.43;80.64
50310;BME280;36207;51.850;21.698;2023-05-16T01:30:41;99180.73;;;12.40;80.55
50310;BME280;36207;51.850;21.698;2023-05-16T01:33:07;99183.10;;;12.34;80.64
50310;BME280;36207;51.850;21.698;2023-05-16T01:35:38;99184.96;;;12.31;80.76
50310;BME280;36207;51.850;21.698;2023-05-16T01:38:19;99184.35;;;12.27;80.62
50310;BME280;36207;51.850;21.698;2023-05-16T01:40:56;99183.77;;;12.25;80.79
50310;BME280;36207;51.850;21.698;2023-05-16T01:43:32;99183.39;;;12.20;81.34
50310;BME280;36207;51.850;21.698;2023-05-16T01:46:10;99181.92;;;12.14;81.09
50310;BME280;36207;51.850;21.698;2023-05-16T01:48:57;99183.16;;;12.08;80.74
50310;BME280;36207;51.850;21.698;2023-05-16T01:51:28;99181.27;;;12.08;80.53
50310;BME280;36207;51.850;21.698;2023-05-16T01:54:04;99181.15;;;12.09;80.63
50310;BME280;36207;51.850;21.698;2023-05-16T01:56:31;99185.64;;;12.09;80.44
50310;BME280;36207;51.850;21.698;2023-05-16T01:58:58;99190.66;;;12.07;80.68
50310;BME280;36207;51.850;21.698;2023-05-16T02:01:25;99190.46;;;12.03;80.67
50310;BME280;36207;51.850;21.698;2023-05-16T02:03:51;99195.87;;;11.99;80.72
50310;BME280;36207;51.850;21.698;2023-05-16T02:06:17;99196.02;;;11.95;80.57
50310;BME280;36207;51.850;21.698;2023-05-16T02:08:43;99197.93;;;11.93;80.63
50310;BME280;36207;51.850;21.698;2023-05-16T02:11:09;99199.98;;;11.93;80.61
50310;BME280;36207;51.850;21.698;2023-05-16T02:13:35;99204.23;;;11.89;80.69
50310;BME280;36207;51.850;21.698;2023-05-16T02:16:01;99201.50;;;11.85;80.45
50310;BME280;36207;51.850;21.698;2023-05-16T02:18:27;99201.40;;;11.83;80.50
50310;BME280;36207;51.850;21.698;2023-05-16T02:20:53;99203.06;;;11.84;80.67
50310;BME280;36207;51.850;21.698;2023-05-16T02:23:19;99209.65;;;11.84;80.69
50310;BME280;36207;51.850;21.698;2023-05-16T02:25:45;99211.09;;;11.83;80.51
50310;BME280;36207;51.850;21.698;2023-05-16T02:28:11;99209.73;;;11.82;80.55
50310;BME280;36207;51.850;21.698;2023-05-16T02:30:37;99214.88;;;11.82;80.65
50310;BME280;36207;51.850;21.698;2023-05-16T02:33:03;99219.14;;;11.80;80.58
50310;BME280;36207;51.850;21.698;2023-05-16T02:35:29;99223.92;;;11.79;80.49
50310;BME280;36207;51.850;21.698;2023-05-16T02:37:55;99226.71;;;11.77;80.42
50310;BME280;36207;51.850;21.698;2023-05-16T02:40:21;99230.21;;;11.75;80.45
50310;BME280;36207;51.850;21.698;2023-05-16T02:42:47;99227.38;;;11.72;80.09
50310;BME280;36207;51.850;21.698;2023-05-16T02:45:13;99229.30;;;11.69;80.41
50310;BME280;36207;51.850;21.698;2023-05-16T02:47:39;99229.02;;;11.69;80.54
50310;BME280;36207;51.850;21.698;2023-05-16T02:50:05;99228.95;;;11.68;80.23
50310;BME280;36207;51.850;21.698;2023-05-16T02:52:31;99227.91;;;11.67;80.33
50310;BME280;36207;51.850;21.698;2023-05-16T02:54:57;99229.64;;;11.66;80.39
50310;BME280;36207;51.850;21.698;2023-05-16T02:57:23;99232.56;;;11.67;80.18
50310;BME280;36207;51.850;21.698;2023-05-16T02:59:49;99239.06;;;11.66;80.22
50310;BME280;36207;51.850;21.698;2023-05-16T03:02:15;99240.30;;;11.67;80.29
50310;BME280;36207;51.850;21.698;2023-05-16T03:04:41;99242.27;;;11.67;80.31
50310;BME280;36207;51.850;21.698;2023-05-16T03:07:07;99245.40;;;11.64;80.14
50310;BME280;36207;51.850;21.698;2023-05-16T03:09:33;99250.20;;;11.61;80.37
50310;BME280;36207;51.850;21.698;2023-05-16T03:11:59;99247.83;;;11.61;80.25
50310;BME280;36207;51.850;21.698;2023-05-16T03:14:25;99248.94;;;11.60;80.29
50310;BME280;36207;51.850;21.698;2023-05-16T03:16:50;99244.73;;;11.60;80.34
50310;BME280;36207;51.850;21.698;2023-05-16T03:19:16;99243.34;;;11.60;80.31
50310;BME280;36207;51.850;21.698;2023-05-16T03:21:42;99243.05;;;11.57;80.26
50310;BME280;36207;51.850;21.698;2023-05-16T03:24:09;99248.64;;;11.58;80.18
50310;BME280;36207;51.850;21.698;2023-05-16T03:26:35;99246.38;;;11.59;80.12
50310;BME280;36207;51.850;21.698;2023-05-16T03:29:01;99247.16;;;11.58;80.23
50310;BME280;36207;51.850;21.698;2023-05-16T03:31:27;99254.02;;;11.56;80.45
50310;BME280;36207;51.850;21.698;2023-05-16T03:33:53;99253.53;;;11.55;80.78
50310;BME280;36207;51.850;21.698;2023-05-16T03:36:22;99254.11;;;11.52;80.34
50310;BME280;36207;51.850;21.698;2023-05-16T03:38:49;99255.95;;;11.50;80.36
50310;BME280;36207;51.850;21.698;2023-05-16T03:41:15;99252.16;;;11.49;80.82
50310;BME280;36207;51.850;21.698;2023-05-16T03:43:41;99253.55;;;11.49;80.69
50310;BME280;36207;51.850;21.698;2023-05-16T03:46:07;99255.83;;;11.51;80.82
50310;BME280;36207;51.850;21.698;2023-05-16T03:48:33;99256.08;;;11.51;80.78
50310;BME280;36207;51.850;21.698;2023-05-16T03:50:59;99253.54;;;11.53;80.74
50310;BME280;36207;51.850;21.698;2023-05-16T03:53:25;99258.39;;;11.58;80.75
50310;BME280;36207;51.850;21.698;2023-05-16T03:55:51;99258.97;;;11.61;80.49
50310;BME280;36207;51.850;21.698;2023-05-16T03:58:17;99259.01;;;11.60;80.41
50310;BME280;36207;51.850;21.698;2023-05-16T04:00:43;99264.23;;;11.61;80.47
50310;BME280;36207;51.850;21.698;2023-05-16T04:03:11;99271.23;;;11.65;80.63
50310;BME280;36207;51.850;21.698;2023-05-16T04:05:36;99276.30;;;11.70;80.69
50310;BME280;36207;51.850;21.698;2023-05-16T04:08:02;99277.58;;;11.74;80.74
50310;BME280;36207;51.850;21.698;2023-05-16T04:10:28;99279.23;;;11.75;80.62
50310;BME280;36207;51.850;21.698;2023-05-16T04:12:55;99282.77;;;11.76;80.72
50310;BME280;36207;51.850;21.698;2023-05-16T04:15:21;99280.80;;;11.80;80.50
50310;BME280;36207;51.850;21.698;2023-05-16T04:17:47;99284.94;;;11.86;80.84
50310;BME280;36207;51.850;21.698;2023-05-16T04:20:13;99285.36;;;11.91;80.79
50310;BME280;36207;51.850;21.698;2023-05-16T04:22:38;99281.57;;;11.96;80.80
50310;BME280;36207;51.850;21.698;2023-05-16T04:25:05;99284.95;;;11.99;80.74
50310;BME280;36207;51.850;21.698;2023-05-16T04:27:31;99280.73;;;12.03;80.74
50310;BME280;36207;51.850;21.698;2023-05-16T04:29:57;99279.09;;;12.08;80.78
50310;BME280;36207;51.850;21.698;2023-05-16T04:32:24;99273.69;;;12.15;80.72
50310;BME280;36207;51.850;21.698;2023-05-16T04:34:50;99268.91;;;12.21;80.51
50310;BME280;36207;51.850;21.698;2023-05-16T04:37:19;99276.04;;;12.26;80.58
50310;BME280;36207;51.850;21.698;2023-05-16T04:39:45;99283.07;;;12.31;80.58
50310;BME280;36207;51.850;21.698;2023-05-16T04:42:12;99285.70;;;12.36;80.61
50310;BME280;36207;51.850;21.698;2023-05-16T04:44:38;99288.52;;;12.41;80.53
50310;BME280;36207;51.850;21.698;2023-05-16T04:47:04;99289.47;;;12.46;80.69
50310;BME280;36207;51.850;21.698;2023-05-16T04:49:30;99291.69;;;12.49;80.49
50310;BME280;36207;51.850;21.698;2023-05-16T04:51:56;99294.09;;;12.57;80.60
50310;BME280;36207;51.850;21.698;2023-05-16T04:54:22;99292.77;;;12.65;80.52
50310;BME280;36207;51.850;21.698;2023-05-16T04:56:48;99295.91;;;12.74;80.57
50310;BME280;36207;51.850;21.698;2023-05-16T04:59:15;99297.16;;;12.83;80.51
50310;BME280;36207;51.850;21.698;2023-05-16T05:01:41;99298.80;;;12.90;80.36
50310;BME280;36207;51.850;21.698;2023-05-16T05:04:07;99296.59;;;12.93;80.16
50310;BME280;36207;51.850;21.698;2023-05-16T05:06:33;99300.58;;;12.96;80.24
50310;BME280;36207;51.850;21.698;2023-05-16T05:08:59;99303.24;;;13.00;80.11
50310;BME280;36207;51.850;21.698;2023-05-16T05:11:25;99305.41;;;13.07;80.45
50310;BME280;36207;51.850;21.698;2023-05-16T05:13:52;99308.10;;;13.13;80.30
50310;BME280;36207;51.850;21.698;2023-05-16T05:16:17;99303.58;;;13.18;80.32
50310;BME280;36207;51.850;21.698;2023-05-16T05:18:43;99305.25;;;13.23;80.08
50310;BME280;36207;51.850;21.698;2023-05-16T05:21:09;99307.30;;;13.30;80.18
50310;BME280;36207;51.850;21.698;2023-05-16T05:23:35;99308.02;;;13.37;79.88
50310;BME280;36207;51.850;21.698;2023-05-16T05:26:01;99311.04;;;13.42;79.82
50310;BME280;36207;51.850;21.698;2023-05-16T05:28:27;99312.52;;;13.50;79.71
50310;BME280;36207;51.850;21.698;2023-05-16T05:30:53;99310.33;;;13.57;80.05
50310;BME280;36207;51.850;21.698;2023-05-16T05:33:18;99310.87;;;13.65;79.39
50310;BME280;36207;51.850;21.698;2023-05-16T05:35:44;99312.19;;;13.71;79.51
50310;BME280;36207;51.850;21.698;2023-05-16T05:38:10;99314.53;;;13.78;79.49
50310;BME280;36207;51.850;21.698;2023-05-16T05:40:36;99314.88;;;13.84;79.61
50310;BME280;36207;51.850;21.698;2023-05-16T05:43:02;99320.27;;;13.89;78.98
50310;BME280;36207;51.850;21.698;2023-05-16T05:45:28;99322.65;;;13.92;78.82
50310;BME280;36207;51.850;21.698;2023-05-16T05:47:54;99323.02;;;13.98;79.09
50310;BME280;36207;51.850;21.698;2023-05-16T05:50:19;99326.57;;;14.05;79.18
50310;BME280;36207;51.850;21.698;2023-05-16T05:52:45;99329.11;;;14.13;79.21
50310;BME280;36207;51.850;21.698;2023-05-16T05:55:11;99326.73;;;14.20;78.55
50310;BME280;36207;51.850;21.698;2023-05-16T05:57:38;99327.78;;;14.27;79.35
50310;BME280;36207;51.850;21.698;2023-05-16T06:00:04;99324.20;;;14.36;78.86
50310;BME280;36207;51.850;21.698;2023-05-16T06:02:31;99330.10;;;14.45;79.10
50310;BME280;36207;51.850;21.698;2023-05-16T06:04:58;99331.30;;;14.55;79.05
50310;BME280;36207;51.850;21.698;2023-05-16T06:07:24;99336.19;;;14.65;78.77
50310;BME280;36207;51.850;21.698;2023-05-16T06:09:50;99335.36;;;14.72;78.40
50310;BME280;36207;51.850;21.698;2023-05-16T06:12:17;99338.62;;;14.80;78.41
50310;BME280;36207;51.850;21.698;2023-05-16T06:14:43;99341.36;;;14.91;78.69
50310;BME280;36207;51.850;21.698;2023-05-16T06:17:09;99338.04;;;15.04;78.86
50310;BME280;36207;51.850;21.698;2023-05-16T06:19:35;99333.68;;;15.15;78.60
50310;BME280;36207;51.850;21.698;2023-05-16T06:22:01;99333.27;;;15.22;78.22
50310;BME280;36207;51.850;21.698;2023-05-16T06:24:27;99333.04;;;15.29;78.16
50310;BME280;36207;51.850;21.698;2023-05-16T06:26:54;99334.58;;;15.40;78.38
50310;BME280;36207;51.850;21.698;2023-05-16T06:29:20;99340.10;;;15.51;78.10
50310;BME280;36207;51.850;21.698;2023-05-16T06:31:46;99337.71;;;15.58;76.64
50310;BME280;36207;51.850;21.698;2023-05-16T06:34:12;99335.73;;;15.63;76.87
50310;BME280;36207;51.850;21.698;2023-05-16T06:36:38;99341.27;;;15.68;76.62
50310;BME280;36207;51.850;21.698;2023-05-16T06:39:04;99346.48;;;15.73;77.05
50310;BME280;36207;51.850;21.698;2023-05-16T06:41:29;99347.56;;;15.79;77.29
50310;BME280;36207;51.850;21.698;2023-05-16T06:43:56;99356.83;;;15.91;76.93
50310;BME280;36207;51.850;21.698;2023-05-16T06:46:21;99360.52;;;15.99;76.44
50310;BME280;36207;51.850;21.698;2023-05-16T06:48:47;99361.40;;;16.07;76.55
50310;BME280;36207;51.850;21.698;2023-05-16T06:51:13;99361.86;;;16.12;74.92
50310;BME280;36207;51.850;21.698;2023-05-16T06:53:39;99359.89;;;16.16;74.96
50310;BME280;36207;51.850;21.698;2023-05-16T06:56:05;99367.07;;;16.18;74.83
50310;BME280;36207;51.850;21.698;2023-05-16T06:58:31;99370.33;;;16.19;74.42
50310;BME280;36207;51.850;21.698;2023-05-16T07:00:57;99370.41;;;16.23;74.91
50310;BME280;36207;51.850;21.698;2023-05-16T07:03:23;99371.36;;;16.29;75.07
50310;BME280;36207;51.850;21.698;2023-05-16T07:05:49;99373.58;;;16.33;74.58
50310;BME280;36207;51.850;21.698;2023-05-16T07:08:20;99379.96;;;16.41;74.69
50310;BME280;36207;51.850;21.698;2023-05-16T07:10:46;99387.91;;;16.48;73.60
50310;BME280;36207;51.850;21.698;2023-05-16T07:13:12;99393.60;;;16.55;73.63
50310;BME280;36207;51.850;21.698;2023-05-16T07:15:38;99395.91;;;16.61;73.96
50310;BME280;36207;51.850;21.698;2023-05-16T07:18:04;99398.95;;;16.70;74.34
50310;BME280;36207;51.850;21.698;2023-05-16T07:20:30;99399.24;;;16.78;74.13
50310;BME280;36207;51.850;21.698;2023-05-16T07:22:56;99400.21;;;16.87;73.63
50310;BME280;36207;51.850;21.698;2023-05-16T07:25:23;99401.09;;;16.93;73.32
50310;BME280;36207;51.850;21.698;2023-05-16T07:27:50;99402.92;;;16.95;71.30
50310;BME280;36207;51.850;21.698;2023-05-16T07:30:16;99407.08;;;16.95;71.88
50310;BME280;36207;51.850;21.698;2023-05-16T07:32:42;99409.37;;;16.96;72.41
50310;BME280;36207;51.850;21.698;2023-05-16T07:35:08;99409.07;;;17.00;72.62
50310;BME280;36207;51.850;21.698;2023-05-16T07:37:34;99414.11;;;17.03;71.94
50310;BME280;36207;51.850;21.698;2023-05-16T07:40:01;99418.23;;;17.05;71.41
50310;BME280;36207;51.850;21.698;2023-05-16T07:42:28;99419.35;;;17.07;71.48
50310;BME280;36207;51.850;21.698;2023-05-16T07:44:54;99428.14;;;17.12;71.43
50310;BME280;36207;51.850;21.698;2023-05-16T07:47:21;99433.92;;;17.12;70.79
50310;BME280;36207;51.850;21.698;2023-05-16T07:49:47;99439.26;;;17.09;70.14
50310;BME280;36207;51.850;21.698;2023-05-16T07:52:14;99438.10;;;17.08;70.67
50310;BME280;36207;51.850;21.698;2023-05-16T07:54:40;99440.27;;;17.13;71.13
50310;BME280;36207;51.850;21.698;2023-05-16T07:57:06;99432.01;;;17.23;70.63
50310;BME280;36207;51.850;21.698;2023-05-16T07:59:32;99426.20;;;17.31;71.10
50310;BME280;36207;51.850;21.698;2023-05-16T08:01:58;99424.14;;;17.36;71.08
50310;BME280;36207;51.850;21.698;2023-05-16T08:04:24;99420.09;;;17.44;71.39
50310;BME280;36207;51.850;21.698;2023-05-16T08:06:50;99420.34;;;17.48;70.86
50310;BME280;36207;51.850;21.698;2023-05-16T08:09:16;99416.34;;;17.49;70.24
50310;BME280;36207;51.850;21.698;2023-05-16T08:11:42;99414.51;;;17.51;70.43
50310;BME280;36207;51.850;21.698;2023-05-16T08:14:10;99413.98;;;17.54;70.23
50310;BME280;36207;51.850;21.698;2023-05-16T08:16:36;99415.77;;;17.56;70.31
50310;BME280;36207;51.850;21.698;2023-05-16T08:19:02;99417.15;;;17.64;70.76
50310;BME280;36207;51.850;21.698;2023-05-16T08:21:28;99418.15;;;17.76;70.04
50310;BME280;36207;51.850;21.698;2023-05-16T08:23:56;99419.78;;;17.84;69.11
50310;BME280;36207;51.850;21.698;2023-05-16T08:26:22;99424.02;;;17.90;69.73
50310;BME280;36207;51.850;21.698;2023-05-16T08:28:48;99427.27;;;17.99;70.00
50310;BME280;36207;51.850;21.698;2023-05-16T08:31:15;99423.14;;;18.07;69.86
50310;BME280;36207;51.850;21.698;2023-05-16T08:33:41;99423.81;;;18.16;69.39
50310;BME280;36207;51.850;21.698;2023-05-16T08:36:10;99428.73;;;18.19;68.95
50310;BME280;36207;51.850;21.698;2023-05-16T08:38:36;99427.24;;;18.23;69.79
50310;BME280;36207;51.850;21.698;2023-05-16T08:41:02;99425.79;;;18.36;70.54
50310;BME280;36207;51.850;21.698;2023-05-16T08:43:28;99431.17;;;18.47;69.57
50310;BME280;36207;51.850;21.698;2023-05-16T08:45:54;99434.98;;;18.46;68.40
50310;BME280;36207;51.850;21.698;2023-05-16T08:48:22;99433.95;;;18.45;68.38
50310;BME280;36207;51.850;21.698;2023-05-16T08:50:48;99431.00;;;18.51;69.42
50310;BME280;36207;51.850;21.698;2023-05-16T08:53:20;99428.76;;;18.66;70.25
50310;BME280;36207;51.850;21.698;2023-05-16T08:55:47;99437.45;;;18.79;69.37
50310;BME280;36207;51.850;21.698;2023-05-16T08:58:15;99440.45;;;18.88;68.74
50310;BME280;36207;51.850;21.698;2023-05-16T09:00:41;99448.46;;;18.93;67.75
50310;BME280;36207;51.850;21.698;2023-05-16T09:03:08;99450.09;;;18.93;66.71
50310;BME280;36207;51.850;21.698;2023-05-16T09:05:34;99446.70;;;18.97;68.31
50310;BME280;36207;51.850;21.698;2023-05-16T09:08:01;99449.98;;;19.11;68.49
50310;BME280;36207;51.850;21.698;2023-05-16T09:10:27;99448.33;;;19.20;68.20
50310;BME280;36207;51.850;21.698;2023-05-16T09:12:53;99449.31;;;19.21;67.70
50310;BME280;36207;51.850;21.698;2023-05-16T09:15:19;99452.45;;;19.20;67.64
50310;BME280;36207;51.850;21.698;2023-05-16T09:17:48;99456.31;;;19.23;67.22
50310;BME280;36207;51.850;21.698;2023-05-16T09:20:16;99462.52;;;19.17;66.45
50310;BME280;36207;51.850;21.698;2023-05-16T09:22:57;99463.80;;;19.12;66.18
50310;BME280;36207;51.850;21.698;2023-05-16T09:25:25;99470.23;;;19.15;66.75
50310;BME280;36207;51.850;21.698;2023-05-16T09:27:58;99473.20;;;19.23;66.80
50310;BME280;36207;51.850;21.698;2023-05-16T09:30:29;99476.30;;;19.28;67.55
50310;BME280;36207;51.850;21.698;2023-05-16T09:32:56;99483.44;;;19.31;66.83
50310;BME280;36207;51.850;21.698;2023-05-16T09:35:22;99487.33;;;19.22;66.20
50310;BME280;36207;51.850;21.698;2023-05-16T09:37:49;99496.91;;;19.14;65.88
50310;BME280;36207;51.850;21.698;2023-05-16T09:40:23;99499.59;;;19.12;66.46
50310;BME280;36207;51.850;21.698;2023-05-16T09:43:05;99504.77;;;19.11;66.70
50310;BME280;36207;51.850;21.698;2023-05-16T09:45:33;99503.27;;;19.17;66.44
50310;BME280;36207;51.850;21.698;2023-05-16T09:48:08;99501.77;;;19.18;66.24
50310;BME280;36207;51.850;21.698;2023-05-16T09:50:36;99503.71;;;19.14;66.11
50310;BME280;36207;51.850;21.698;2023-05-16T09:53:02;99507.48;;;19.05;65.14
50310;BME280;36207;51.850;21.698;2023-05-16T09:55:30;99506.09;;;18.92;64.56
50310;BME280;36207;51.850;21.698;2023-05-16T09:57:56;99507.73;;;18.86;64.36
50310;BME280;36207;51.850;21.698;2023-05-16T10:00:28;99510.35;;;18.92;64.70
50310;BME280;36207;51.850;21.698;2023-05-16T10:02:56;99515.46;;;19.00;65.06
50310;BME280;36207;51.850;21.698;2023-05-16T10:05:26;99520.55;;;19.10;65.40
50310;BME280;36207;51.850;21.698;2023-05-16T10:07:56;99526.64;;;19.09;64.23
50310;BME280;36207;51.850;21.698;2023-05-16T10:10:23;99525.83;;;19.01;64.51
50310;BME280;36207;51.850;21.698;2023-05-16T10:12:54;99530.21;;;18.95;64.34
50310;BME280;36207;51.850;21.698;2023-05-16T10:15:23;99537.89;;;18.87;64.50
50310;BME280;36207;51.850;21.698;2023-05-16T10:17:50;99544.92;;;18.79;64.36
50310;BME280;36207;51.850;21.698;2023-05-16T10:20:19;99550.70;;;18.78;64.47
50310;BME280;36207;51.850;21.698;2023-05-16T10:22:45;99554.70;;;18.84;64.65
50310;BME280;36207;51.850;21.698;2023-05-16T10:25:24;99553.93;;;18.86;64.74
50310;BME280;36207;51.850;21.698;2023-05-16T10:27:50;99548.36;;;18.93;65.00
50310;BME280;36207;51.850;21.698;2023-05-16T10:30:17;99547.75;;;19.06;65.36
50310;BME280;36207;51.850;21.698;2023-05-16T10:32:45;99550.80;;;19.17;64.84
50310;BME280;36207;51.850;21.698;2023-05-16T10:35:11;99552.90;;;19.19;64.80
50310;BME280;36207;51.850;21.698;2023-05-16T10:37:37;99545.66;;;19.24;65.19
50310;BME280;36207;51.850;21.698;2023-05-16T10:40:05;99554.39;;;19.33;64.96
50310;BME280;36207;51.850;21.698;2023-05-16T10:42:32;99559.48;;;19.39;64.54
50310;BME280;36207;51.850;21.698;2023-05-16T10:45:15;99561.00;;;19.47;65.11
50310;BME280;36207;51.850;21.698;2023-05-16T10:47:50;99561.84;;;19.53;64.70
50310;BME280;36207;51.850;21.698;2023-05-16T10:50:33;99563.14;;;19.57;64.49
50310;BME280;36207;51.850;21.698;2023-05-16T10:58:40;99568.02;;;19.74;64.08
50310;BME280;36207;51.850;21.698;2023-05-16T11:01:14;99573.79;;;19.73;63.94
50310;BME280;36207;51.850;21.698;2023-05-16T11:06:23;99572.07;;;19.73;63.96
50310;BME280;36207;51.850;21.698;2023-05-16T11:09:05;99575.92;;;19.78;63.50
50310;BME280;36207;51.850;21.698;2023-05-16T11:11:54;99573.14;;;19.85;64.44
50310;BME280;36207;51.850;21.698;2023-05-16T11:17:01;99567.69;;;20.03;64.18
50310;BME280;36207;51.850;21.698;2023-05-16T11:22:09;99577.93;;;20.04;62.89
50310;BME280;36207;51.850;21.698;2023-05-16T11:24:38;99577.52;;;20.04;63.25
50310;BME280;36207;51.850;21.698;2023-05-16T11:27:05;99576.20;;;20.07;63.57
50310;BME280;36207;51.850;21.698;2023-05-16T11:29:36;99584.98;;;20.16;63.49
50310;BME280;36207;51.850;21.698;2023-05-16T11:32:03;99585.11;;;20.18;63.21
50310;BME280;36207;51.850;21.698;2023-05-16T11:34:30;99580.35;;;20.14;62.59
50310;BME280;36207;51.850;21.698;2023-05-16T11:36:57;99579.77;;;20.07;62.43
50310;BME280;36207;51.850;21.698;2023-05-16T11:39:24;99583.59;;;20.00;62.58
50310;BME280;36207;51.850;21.698;2023-05-16T11:41:52;99586.12;;;19.99;63.29
50310;BME280;36207;51.850;21.698;2023-05-16T11:44:18;99588.56;;;20.04;63.33
50310;BME280;36207;51.850;21.698;2023-05-16T11:46:44;99594.35;;;20.12;63.44
50310;BME280;36207;51.850;21.698;2023-05-16T11:49:11;99593.63;;;20.23;63.81
50310;BME280;36207;51.850;21.698;2023-05-16T11:51:38;99587.30;;;20.38;64.08
50310;BME280;36207;51.850;21.698;2023-05-16T11:54:07;99587.45;;;20.54;63.55
50310;BME280;36207;51.850;21.698;2023-05-16T11:56:35;99586.09;;;20.64;63.27
50310;BME280;36207;51.850;21.698;2023-05-16T11:59:01;99588.43;;;20.76;63.79
50310;BME280;36207;51.850;21.698;2023-05-16T12:01:33;99594.34;;;20.92;63.58
50310;BME280;36207;51.850;21.698;2023-05-16T12:04:00;99599.02;;;21.05;63.10
50310;BME280;36207;51.850;21.698;2023-05-16T12:06:26;99603.81;;;21.13;62.86
50310;BME280;36207;51.850;21.698;2023-05-16T12:08:54;99603.68;;;21.12;62.36
50310;BME280;36207;51.850;21.698;2023-05-16T12:11:22;99602.80;;;21.15;62.58
50310;BME280;36207;51.850;21.698;2023-05-16T12:13:48;99604.20;;;21.21;62.35
50310;BME280;36207;51.850;21.698;2023-05-16T12:16:15;99606.80;;;21.22;62.23
50310;BME280;36207;51.850;21.698;2023-05-16T12:18:41;99597.82;;;21.18;62.01
50310;BME280;36207;51.850;21.698;2023-05-16T12:21:08;99598.02;;;21.16;61.90
50310;BME280;36207;51.850;21.698;2023-05-16T12:23:34;99603.71;;;21.15;62.31
50310;BME280;36207;51.850;21.698;2023-05-16T12:26:02;99608.77;;;21.15;61.67
50310;BME280;36207;51.850;21.698;2023-05-16T12:28:32;99609.77;;;21.06;60.77
50310;BME280;36207;51.850;21.698;2023-05-16T12:30:59;99605.22;;;20.95;60.94
50310;BME280;36207;51.850;21.698;2023-05-16T12:33:26;99603.79;;;20.93;61.45
50310;BME280;36207;51.850;21.698;2023-05-16T12:35:52;99602.80;;;20.99;61.71
50310;BME280;36207;51.850;21.698;2023-05-16T12:38:20;99601.20;;;21.08;61.84
50310;BME280;36207;51.850;21.698;2023-05-16T12:40:48;99600.23;;;21.14;61.52
50310;BME280;36207;51.850;21.698;2023-05-16T12:43:19;99596.90;;;21.19;61.48
50310;BME280;36207;51.850;21.698;2023-05-16T12:45:53;99604.09;;;21.21;60.88
50310;BME280;36207;51.850;21.698;2023-05-16T12:48:20;99604.35;;;21.15;60.67
50310;BME280;36207;51.850;21.698;2023-05-16T12:50:46;99603.53;;;21.14;61.07
50310;BME280;36207;51.850;21.698;2023-05-16T12:53:15;99606.61;;;21.16;60.27
50310;BME280;36207;51.850;21.698;2023-05-16T12:55:42;99609.59;;;21.10;60.27
50310;BME280;36207;51.850;21.698;2023-05-16T12:58:18;99604.70;;;21.09;60.51
50310;BME280;36207;51.850;21.698;2023-05-16T13:00:44;99604.04;;;21.08;60.67
50310;BME280;36207;51.850;21.698;2023-05-16T13:03:13;99609.40;;;21.07;60.38
50310;BME280;36207;51.850;21.698;2023-05-16T13:05:39;99610.70;;;21.01;59.81
50310;BME280;36207;51.850;21.698;2023-05-16T13:08:08;99613.26;;;20.95;60.01
50310;BME280;36207;51.850;21.698;2023-05-16T13:10:34;99617.41;;;20.94;59.96
50310;BME280;36207;51.850;21.698;2023-05-16T13:13:01;99621.55;;;20.94;59.74